Time;durP1;ratioP1;P1;durP2;ratioP2;P2;SDS_P1;SDS_P2;PMS_P1;PMS_P2;Temp;Humidity;BMP_temperature;BMP_pressure;BME280_temperature;BME280_humidity;BME280_pressure;Samples;Min_cycle;Max_cycle;Signal;HPM_P1;HPM_P2
2022/05/02 00:00:24;;;;;;;;;;;17.40;99.90;;;;;;5115989;28;19966;-79
2022/05/02 00:02:51;;;;;;;;;;;17.50;99.90;;;;;;5115924;28;19908;-79
2022/05/02 00:05:18;;;;;;;;;;;17.50;99.90;;;;;;5115971;28;19908;-78
2022/05/02 00:07:44;;;;;;;;;;;17.50;99.90;;;;;;5115571;28;19911;-78
2022/05/02 00:10:11;;;;;;;;;;;17.60;99.90;;;;;;5116048;28;19912;-79
2022/05/02 00:12:39;;;;;;;;;;;17.60;99.90;;;;;;5115719;28;19916;-80
2022/05/02 00:15:06;;;;;;;;;;;17.60;99.90;;;;;;5115617;28;19958;-79
2022/05/02 00:20:17;;;;;;;;;;;17.70;99.90;;;;;;5099009;28;20427;-78
2022/05/02 00:22:45;;;;;;;;;;;17.80;99.90;;;;;;5115476;28;19915;-78
2022/05/02 00:25:13;;;;;;;;;;;17.90;99.90;;;;;;5115802;28;19908;-78
2022/05/02 00:27:39;;;;;;;;;;;18.00;99.90;;;;;;5115311;28;20282;-78
2022/05/02 00:30:07;;;;;;;;;;;18.00;99.90;;;;;;5115542;28;20384;-80
2022/05/02 00:32:33;;;;;;;;;;;18.00;99.90;;;;;;5115340;28;19922;-79
2022/05/02 00:35:00;;;;;;;;;;;18.10;99.90;;;;;;5115289;28;19908;-80
2022/05/02 00:37:28;;;;;;;;;;;18.20;99.90;;;;;;5115293;28;19915;-82
2022/05/02 00:39:55;;;;;;;;;;;18.20;99.90;;;;;;5115228;28;19912;-81
2022/05/02 00:42:21;;;;;;;;;;;18.20;99.90;;;;;;5115001;28;19908;-79
2022/05/02 00:44:48;;;;;;;;;;;18.20;99.90;;;;;;5115237;28;19966;-78
2022/05/02 00:47:15;;;;;;;;;;;18.30;99.90;;;;;;5114954;28;19912;-78
2022/05/02 00:49:43;;;;;;;;;;;18.30;99.90;;;;;;5114588;28;19966;-79
2022/05/02 00:52:09;;;;;;;;;;;18.40;99.90;;;;;;5114856;28;20263;-81
2022/05/02 00:54:37;;;;;;;;;;;18.60;99.90;;;;;;5114923;28;19915;-78
2022/05/02 00:57:07;;;;;;;;;;;18.70;99.90;;;;;;5114892;28;19914;-78
2022/05/02 00:59:37;;;;;;;;;;;18.80;99.90;;;;;;5114725;28;19908;-78
2022/05/02 01:02:04;;;;;;;;;;;18.80;99.90;;;;;;5114733;28;19908;-78
2022/05/02 01:04:31;;;;;;;;;;;18.90;99.90;;;;;;5114781;28;19908;-78
2022/05/02 01:07:19;;;;;;;;;;;18.90;99.90;;;;;;5113516;28;19908;-78
2022/05/02 01:09:46;;;;;;;;;;;19.00;99.90;;;;;;5114518;28;19908;-79
2022/05/02 01:12:21;;;;;;;;;;;19.10;99.90;;;;;;5114646;28;19920;-81
2022/05/02 01:14:51;;;;;;;;;;;19.30;99.90;;;;;;5114586;28;20266;-85
2022/05/02 01:17:18;;;;;;;;;;;19.40;99.90;;;;;;5114551;28;19907;-79
2022/05/02 01:19:45;;;;;;;;;;;19.50;99.90;;;;;;5114218;28;19943;-80
2022/05/02 01:22:12;;;;;;;;;;;19.50;99.90;;;;;;5114332;28;19939;-78
2022/05/02 01:24:42;;;;;;;;;;;19.60;99.90;;;;;;5114510;28;20373;-79
2022/05/02 01:27:10;;;;;;;;;;;19.50;99.90;;;;;;5114364;28;19960;-78
2022/05/02 01:29:37;;;;;;;;;;;19.60;99.90;;;;;;5114210;28;19907;-79
2022/05/02 01:32:08;;;;;;;;;;;19.70;99.90;;;;;;5114351;28;20350;-78
2022/05/02 01:34:35;;;;;;;;;;;20.00;99.90;;;;;;5114304;28;19912;-80
2022/05/02 01:37:03;;;;;;;;;;;20.10;99.90;;;;;;5114031;28;20041;-79
2022/05/02 01:39:30;;;;;;;;;;;20.30;99.90;;;;;;5113939;28;19907;-81
2022/05/02 01:42:00;;;;;;;;;;;20.10;99.90;;;;;;5114410;28;20332;-80
2022/05/02 01:44:27;;;;;;;;;;;20.00;99.90;;;;;;5114066;28;19908;-79
2022/05/02 01:46:54;;;;;;;;;;;19.90;99.90;;;;;;5114041;28;19908;-83
2022/05/02 01:49:22;;;;;;;;;;;19.90;99.90;;;;;;5113806;28;19918;-80
2022/05/02 01:51:49;;;;;;;;;;;19.90;99.90;;;;;;5113613;28;19922;-80
2022/05/02 01:54:16;;;;;;;;;;;19.80;99.90;;;;;;5113415;28;19912;-84
2022/05/02 01:56:42;;;;;;;;;;;19.70;99.90;;;;;;5114017;28;19908;-85
2022/05/02 01:59:09;;;;;;;;;;;19.80;99.90;;;;;;5113887;28;19912;-83
2022/05/02 02:01:35;;;;;;;;;;;19.80;99.90;;;;;;5113893;28;19915;-80
2022/05/02 02:05:48;;;;;;;;;;;19.80;99.90;;;;;;5113872;28;19998;-84
2022/05/02 02:06:52;;;;;;;;;;;19.90;99.90;;;;;;5113741;28;19908;-85
2022/05/02 02:09:19;;;;;;;;;;;19.80;99.90;;;;;;5113942;28;20368;-79
2022/05/02 02:11:45;;;;;;;;;;;19.70;99.90;;;;;;5113573;28;20330;-78
2022/05/02 02:14:12;;;;;;;;;;;19.60;99.90;;;;;;5113858;28;19908;-79
2022/05/02 02:16:39;;;;;;;;;;;19.50;99.90;;;;;;5113813;28;19907;-79
2022/05/02 02:19:05;;;;;;;;;;;19.30;99.90;;;;;;5113797;28;19916;-79
2022/05/02 02:21:32;;;;;;;;;;;19.30;99.90;;;;;;5113348;28;19914;-78
2022/05/02 02:24:00;;;;;;;;;;;19.40;99.90;;;;;;5113590;28;19908;-79
2022/05/02 02:29:48;;;;;;;;;;;19.50;99.90;;;;;;5033361;28;19909;-81
2022/05/02 02:32:15;;;;;;;;;;;19.50;99.90;;;;;;5034640;28;20407;-78
2022/05/02 02:34:41;;;;;;;;;;;19.50;99.90;;;;;;5095178;28;19908;-80
2022/05/02 02:37:08;;;;;;;;;;;19.60;99.90;;;;;;5113438;28;19912;-79
2022/05/02 02:39:35;;;;;;;;;;;19.80;99.90;;;;;;5113358;28;19912;-80
2022/05/02 02:42:01;;;;;;;;;;;19.90;99.90;;;;;;5113463;28;19914;-81
2022/05/02 02:44:28;;;;;;;;;;;20.00;99.90;;;;;;5113477;28;19986;-79
2022/05/02 02:46:55;;;;;;;;;;;20.00;99.90;;;;;;5113313;28;19912;-79
2022/05/02 02:49:21;;;;;;;;;;;20.00;99.90;;;;;;5113346;28;19966;-78
2022/05/02 02:51:48;;;;;;;;;;;20.10;99.90;;;;;;5112953;28;19976;-78
2022/05/02 02:54:15;;;;;;;;;;;20.10;99.90;;;;;;5113154;28;19911;-80
2022/05/02 02:59:26;;;;;;;;;;;20.20;99.90;;;;;;5113570;28;19953;-78
2022/05/02 03:01:53;;;;;;;;;;;20.20;99.90;;;;;;5113054;28;19999;-79
2022/05/02 03:07:08;;;;;;;;;;;20.20;99.90;;;;;;5116678;28;19954;-79
2022/05/02 03:09:35;;;;;;;;;;;20.30;99.90;;;;;;5116754;28;19912;-79
2022/05/02 03:12:01;;;;;;;;;;;20.30;99.90;;;;;;5116920;28;19996;-79
2022/05/02 03:14:28;;;;;;;;;;;20.40;99.90;;;;;;5116940;28;19915;-79
2022/05/02 03:16:55;;;;;;;;;;;20.60;99.90;;;;;;5116800;28;19965;-78
2022/05/02 03:19:21;;;;;;;;;;;20.60;99.90;;;;;;5116845;28;19907;-78
2022/05/02 03:21:48;;;;;;;;;;;20.50;99.90;;;;;;5116686;28;19908;-79
2022/05/02 03:24:15;;;;;;;;;;;20.50;99.90;;;;;;5117309;28;19912;-80
2022/05/02 03:26:41;;;;;;;;;;;20.40;99.90;;;;;;5116726;28;19908;-80
2022/05/02 03:29:08;;;;;;;;;;;20.30;99.90;;;;;;5110615;28;19912;-79
2022/05/02 03:31:35;;;;;;;;;;;20.20;99.90;;;;;;5085086;28;20436;-78
2022/05/02 03:34:01;;;;;;;;;;;20.10;99.90;;;;;;5086884;28;20354;-79
2022/05/02 03:36:28;;;;;;;;;;;20.10;99.90;;;;;;5116271;28;19908;-79
2022/05/02 03:38:55;;;;;;;;;;;20.00;99.90;;;;;;5116363;28;19912;-79
2022/05/02 03:41:21;;;;;;;;;;;20.10;99.90;;;;;;5115020;28;19995;-79
2022/05/02 03:43:48;;;;;;;;;;;20.10;99.90;;;;;;5114985;28;20335;-78
2022/05/02 03:46:14;;;;;;;;;;;20.10;99.90;;;;;;5116263;28;19912;-79
2022/05/02 03:48:41;;;;;;;;;;;20.10;99.90;;;;;;5116142;28;19908;-79
2022/05/02 03:51:08;;;;;;;;;;;20.10;99.90;;;;;;5116088;28;19919;-80
2022/05/02 03:53:35;;;;;;;;;;;20.10;99.90;;;;;;5115919;28;19934;-80
2022/05/02 03:56:01;;;;;;;;;;;20.20;99.90;;;;;;5116293;28;20010;-78
2022/05/02 03:58:31;;;;;;;;;;;20.10;99.90;;;;;;5115927;28;19915;-78
2022/05/02 04:00:58;;;;;;;;;;;20.10;99.90;;;;;;5116069;28;19931;-78
2022/05/02 04:03:25;;;;;;;;;;;20.00;99.90;;;;;;5115748;28;19918;-78
2022/05/02 04:05:51;;;;;;;;;;;19.90;99.90;;;;;;5114538;28;19908;-81
2022/05/02 04:08:18;;;;;;;;;;;19.90;99.90;;;;;;5115863;28;20044;-79
2022/05/02 04:10:45;;;;;;;;;;;19.90;99.90;;;;;;5115812;28;19919;-80
2022/05/02 04:13:11;;;;;;;;;;;19.90;99.90;;;;;;5115784;28;20259;-80
2022/05/02 04:15:38;;;;;;;;;;;19.90;99.90;;;;;;5115439;28;19999;-80
2022/05/02 04:18:05;;;;;;;;;;;19.90;99.90;;;;;;5115135;28;19911;-80
2022/05/02 04:20:32;;;;;;;;;;;19.90;99.90;;;;;;5115587;28;19908;-77
2022/05/02 04:22:58;;;;;;;;;;;19.90;99.90;;;;;;5115634;28;19908;-78
2022/05/02 04:25:27;;;;;;;;;;;19.90;99.90;;;;;;5115618;28;20275;-78
2022/05/02 04:27:54;;;;;;;;;;;20.00;99.90;;;;;;5115401;28;19919;-79
2022/05/02 04:30:21;;;;;;;;;;;19.90;99.90;;;;;;5115558;28;19931;-78
2022/05/02 04:32:47;;;;;;;;;;;20.00;99.90;;;;;;5115377;28;20010;-79
2022/05/02 04:35:15;;;;;;;;;;;19.90;99.90;;;;;;5115440;28;19962;-78
2022/05/02 04:37:41;;;;;;;;;;;19.90;99.90;;;;;;5115142;28;20003;-78
2022/05/02 04:40:08;;;;;;;;;;;19.90;99.90;;;;;;5115251;28;19908;-79
2022/05/02 04:42:36;;;;;;;;;;;19.90;99.90;;;;;;5115181;28;19964;-79
2022/05/02 04:45:03;;;;;;;;;;;19.90;99.90;;;;;;5115044;28;19911;-79
2022/05/02 04:47:30;;;;;;;;;;;20.00;99.90;;;;;;5115025;28;19907;-78
2022/05/02 04:49:56;;;;;;;;;;;20.00;99.90;;;;;;5114753;28;19923;-80
2022/05/02 04:52:23;;;;;;;;;;;19.90;99.90;;;;;;5114831;28;19916;-80
2022/05/02 04:54:50;;;;;;;;;;;20.00;99.90;;;;;;5114996;28;19908;-79
2022/05/02 04:58:07;;;;;;;;;;;;;;;;;;;;;
2022/05/02 05:00:34;;;;;;;;;;;20.00;99.90;;;;;;5052103;28;19909;-81
2022/05/02 05:03:03;;;;;;;;;;;20.00;99.90;;;;;;5052217;28;19947;-82
2022/05/02 05:05:29;;;;;;;;;;;20.00;99.90;;;;;;5088333;28;19915;-81
2022/05/02 05:07:56;;;;;;;;;;;20.00;99.90;;;;;;5114772;28;19908;-79
2022/05/02 05:10:23;;;;;;;;;;;20.10;99.90;;;;;;5114357;28;19914;-78
2022/05/02 05:12:55;;;;;;;;;;;20.10;99.90;;;;;;5114353;28;20293;-80
2022/05/02 05:18:26;;;;;;;;;;;20.20;99.90;;;;;;5114786;28;19915;-79
2022/05/02 05:21:00;;;;;;;;;;;20.20;99.90;;;;;;5114322;28;20317;-78
2022/05/02 05:23:45;;;;;;;;;;;20.20;99.90;;;;;;5114505;28;19912;-78
2022/05/02 05:26:15;;;;;;;;;;;20.20;99.90;;;;;;5114503;28;19907;-78
2022/05/02 05:28:51;;;;;;;;;;;20.10;99.90;;;;;;5113748;28;19914;-80
2022/05/02 05:31:21;;;;;;;;;;;20.00;99.90;;;;;;5114371;28;19987;-78
2022/05/02 05:33:54;;;;;;;;;;;20.00;99.90;;;;;;5114033;28;19911;-79
2022/05/02 05:36:20;;;;;;;;;;;19.90;99.90;;;;;;5114102;28;20006;-79
2022/05/02 05:38:47;;;;;;;;;;;19.90;99.90;;;;;;5114235;28;19908;-78
2022/05/02 05:41:29;;;;;;;;;;;19.90;99.90;;;;;;5114323;28;19908;-80
2022/05/02 05:44:09;;;;;;;;;;;19.80;99.90;;;;;;5114266;28;19911;-78
2022/05/02 05:46:44;;;;;;;;;;;19.80;99.90;;;;;;5114345;28;20013;-86
2022/05/02 05:49:37;;;;;;;;;;;19.80;99.90;;;;;;5113781;28;19911;-79
2022/05/02 05:52:09;;;;;;;;;;;19.80;99.90;;;;;;5090212;28;19975;-80
2022/05/02 05:54:55;;;;;;;;;;;19.70;99.90;;;;;;5113890;28;19907;-80
2022/05/02 05:57:28;;;;;;;;;;;19.70;99.90;;;;;;5112947;28;20274;-78
2022/05/02 05:59:58;;;;;;;;;;;19.60;99.90;;;;;;5113577;28;19912;-84
2022/05/02 06:02:32;;;;;;;;;;;19.60;99.90;;;;;;5113934;28;20389;-78
2022/05/02 06:05:00;;;;;;;;;;;19.50;99.90;;;;;;5113779;28;19908;-78
2022/05/02 06:07:28;;;;;;;;;;;19.50;99.90;;;;;;5113899;28;19953;-79
2022/05/02 06:10:00;;;;;;;;;;;19.50;99.90;;;;;;5113974;28;20002;-79
2022/05/02 06:12:29;;;;;;;;;;;19.50;99.90;;;;;;5113697;28;20320;-82
2022/05/02 06:20:29;;;;;;;;;;;19.40;99.90;;;;;;5114059;28;20400;-79
2022/05/02 06:22:57;;;;;;;;;;;19.40;99.90;;;;;;5113767;28;19908;-79
2022/05/02 06:25:24;;;;;;;;;;;19.40;99.90;;;;;;5113900;28;19983;-79
2022/05/02 06:27:51;;;;;;;;;;;19.40;99.90;;;;;;5113574;28;20425;-78
2022/05/02 06:30:18;;;;;;;;;;;19.40;99.90;;;;;;5113729;28;19908;-78
2022/05/02 06:32:45;;;;;;;;;;;19.30;99.90;;;;;;5113518;28;19933;-79
2022/05/02 06:35:11;;;;;;;;;;;19.30;99.90;;;;;;5113546;28;19958;-81
2022/05/02 06:37:44;;;;;;;;;;;19.30;99.90;;;;;;5112317;28;20354;-77
2022/05/02 06:40:37;;;;;;;;;;;19.30;99.90;;;;;;5114386;28;20119;-84
2022/05/02 06:43:17;;;;;;;;;;;19.20;99.90;;;;;;5114958;28;20362;-79
2022/05/02 06:45:52;;;;;;;;;;;19.20;99.90;;;;;;5117391;28;20407;-80
2022/05/02 06:48:28;;;;;;;;;;;19.20;99.90;;;;;;5118073;28;19908;-79
2022/05/02 06:51:00;;;;;;;;;;;19.10;99.90;;;;;;5116010;28;19928;-81
2022/05/02 06:53:27;;;;;;;;;;;19.10;99.90;;;;;;5115664;28;20023;-81
2022/05/02 06:56:02;;;;;;;;;;;19.00;99.90;;;;;;5115396;28;19991;-82
2022/05/02 06:58:52;;;;;;;;;;;19.00;99.90;;;;;;5115673;28;19908;-83
2022/05/02 07:01:40;;;;;;;;;;;18.90;99.90;;;;;;5117265;28;19908;-81
2022/05/02 07:04:16;;;;;;;;;;;18.90;99.90;;;;;;5115689;28;19908;-86
2022/05/02 07:06:43;;;;;;;;;;;18.90;99.90;;;;;;5116097;28;19908;-81
2022/05/02 07:09:13;;;;;;;;;;;18.90;99.90;;;;;;5115974;28;19926;-83
2022/05/02 07:11:39;;;;;;;;;;;18.80;99.90;;;;;;5115297;28;19963;-82
2022/05/02 07:14:38;;;;;;;;;;;18.80;99.90;;;;;;5115555;28;19908;-84
2022/05/02 07:17:07;;;;;;;;;;;18.80;99.90;;;;;;5079953;28;19969;-83
2022/05/02 07:19:48;;;;;;;;;;;18.70;99.90;;;;;;5114688;28;19912;-81
2022/05/02 07:22:18;;;;;;;;;;;18.70;99.90;;;;;;5115061;28;19911;-82
2022/05/02 07:24:44;;;;;;;;;;;18.70;99.90;;;;;;5114985;28;19938;-82
2022/05/02 07:27:31;;;;;;;;;;;18.60;99.90;;;;;;5114813;28;19955;-87
2022/05/02 07:29:59;;;;;;;;;;;18.60;99.90;;;;;;5114622;28;19915;-83
2022/05/02 07:32:26;;;;;;;;;;;18.50;99.90;;;;;;5114825;28;20630;-85
2022/05/02 07:34:55;;;;;;;;;;;18.50;99.90;;;;;;5114646;28;19920;-85
2022/05/02 07:37:25;;;;;;;;;;;18.40;99.90;;;;;;5114870;28;19907;-87
2022/05/02 07:39:53;;;;;;;;;;;18.40;99.90;;;;;;5114415;28;19923;-85
2022/05/02 07:42:20;;;;;;;;;;;18.40;99.90;;;;;;5114643;28;19965;-79
2022/05/02 07:44:49;;;;;;;;;;;18.40;99.90;;;;;;5113978;28;19918;-84
2022/05/02 07:47:16;;;;;;;;;;;18.40;99.90;;;;;;5114577;28;19908;-87
2022/05/02 07:49:46;;;;;;;;;;;18.40;99.90;;;;;;5112865;28;19939;-85
2022/05/02 07:52:15;;;;;;;;;;;18.40;99.90;;;;;;5113626;28;19960;-79
2022/05/02 07:54:42;;;;;;;;;;;18.40;99.90;;;;;;5114423;28;20358;-79
2022/05/02 07:57:10;;;;;;;;;;;18.40;99.90;;;;;;5114387;28;20049;-80
2022/05/02 07:59:39;;;;;;;;;;;18.40;99.90;;;;;;5114765;28;19914;-80
2022/05/02 08:02:07;;;;;;;;;;;18.30;99.90;;;;;;5114736;28;19963;-80
2022/05/02 08:04:37;;;;;;;;;;;18.30;99.90;;;;;;5114708;28;20366;-88
2022/05/02 08:07:15;;;;;;;;;;;18.30;99.90;;;;;;5114833;28;19908;-81
2022/05/02 08:09:55;;;;;;;;;;;18.30;99.90;;;;;;5113520;28;19908;-81
2022/05/02 08:12:21;;;;;;;;;;;18.30;99.90;;;;;;5114100;28;19916;-80
2022/05/02 08:15:07;;;;;;;;;;;18.30;99.90;;;;;;5114066;28;19914;-83
2022/05/02 08:17:42;;;;;;;;;;;18.30;99.90;;;;;;5114501;28;19912;-84
2022/05/02 08:20:29;;;;;;;;;;;18.30;99.90;;;;;;5114307;28;19915;-85
2022/05/02 08:29:06;;;;;;;;;;;18.20;99.90;;;;;;5073336;28;19919;-82
2022/05/02 08:31:45;;;;;;;;;;;18.20;99.90;;;;;;5074582;28;20398;-81
2022/05/02 08:34:18;;;;;;;;;;;18.20;99.90;;;;;;5072385;28;19920;-83
2022/05/02 08:37:00;;;;;;;;;;;18.30;99.90;;;;;;5074064;28;19962;-83
2022/05/02 08:39:32;;;;;;;;;;;18.30;99.90;;;;;;5073385;28;20450;-82
2022/05/02 08:42:18;;;;;;;;;;;18.30;99.90;;;;;;5072717;28;19948;-81
2022/05/02 08:45:14;;;;;;;;;;;18.20;99.90;;;;;;5068701;28;19974;-84
2022/05/02 08:47:50;;;;;;;;;;;18.20;99.90;;;;;;5068672;28;19909;-81
2022/05/02 08:50:25;;;;;;;;;;;18.20;99.90;;;;;;5071624;28;19921;-83
2022/05/02 08:53:07;;;;;;;;;;;18.20;99.90;;;;;;5073008;28;20398;-81
2022/05/02 08:55:40;;;;;;;;;;;18.20;99.90;;;;;;5075558;28;19909;-82
2022/05/02 08:58:40;;;;;;;;;;;18.20;99.90;;;;;;5077757;28;19970;-85
2022/05/02 09:01:25;;;;;;;;;;;18.20;99.90;;;;;;5060469;28;19912;-86
2022/05/02 09:04:10;;;;;;;;;;;18.20;99.90;;;;;;5072157;28;19974;-84
2022/05/02 09:06:51;;;;;;;;;;;18.10;99.90;;;;;;5075439;28;19959;-81
2022/05/02 09:09:37;;;;;;;;;;;18.10;99.90;;;;;;5076317;28;20274;-81
2022/05/02 09:12:13;;;;;;;;;;;18.10;99.90;;;;;;5076664;28;19916;-88
2022/05/02 09:14:43;;;;;;;;;;;18.10;99.90;;;;;;5076535;28;19915;-83
2022/05/02 09:17:25;;;;;;;;;;;18.10;99.90;;;;;;5076008;28;19916;-84
2022/05/02 09:19:59;;;;;;;;;;;18.10;99.90;;;;;;5076929;28;19915;-85
2022/05/02 09:22:26;;;;;;;;;;;18.00;99.90;;;;;;5076454;28;20002;-83
2022/05/02 09:25:07;;;;;;;;;;;18.00;99.90;;;;;;5076462;28;19908;-85
2022/05/02 09:27:57;;;;;;;;;;;18.00;99.90;;;;;;5076302;28;20351;-86
2022/05/02 09:30:41;;;;;;;;;;;18.00;99.90;;;;;;5065069;28;19909;-84
2022/05/02 09:33:08;;;;;;;;;;;18.00;99.90;;;;;;5074537;28;20003;-81
2022/05/02 09:35:44;;;;;;;;;;;17.90;99.90;;;;;;5074422;28;20012;-82
2022/05/02 09:38:29;;;;;;;;;;;17.90;99.90;;;;;;5075624;28;19909;-84
2022/05/02 09:41:10;;;;;;;;;;;17.90;99.90;;;;;;5075575;28;19908;-85
2022/05/02 09:49:56;;;;;;;;;;;17.80;99.90;;;;;;5075905;28;20340;-83
2022/05/02 09:52:34;;;;;;;;;;;17.80;99.90;;;;;;5108070;27;19959;-77
2022/05/02 09:58:00;;;;;;;;;;;17.80;99.90;;;;;;5074114;28;19915;-83
2022/05/02 10:03:20;;;;;;;;;;;17.70;99.90;;;;;;5075168;28;19916;-85
2022/05/02 10:05:50;;;;;;;;;;;17.70;99.90;;;;;;5075483;28;19919;-87
2022/05/02 10:08:35;;;;;;;;;;;17.70;99.90;;;;;;5076060;28;19915;-88
2022/05/02 10:11:07;;;;;;;;;;;17.70;99.90;;;;;;5078301;28;19915;-83
2022/05/02 10:13:52;;;;;;;;;;;17.70;99.90;;;;;;5075645;28;19922;-84
2022/05/02 10:16:45;;;;;;;;;;;17.70;99.90;;;;;;5076697;28;19913;-82
2022/05/02 10:19:20;;;;;;;;;;;17.60;99.90;;;;;;5074627;28;19909;-82
2022/05/02 10:21:53;;;;;;;;;;;17.60;99.90;;;;;;5077777;28;19908;-87
2022/05/02 10:24:32;;;;;;;;;;;17.60;99.90;;;;;;5081623;28;19934;-88
2022/05/02 10:27:21;;;;;;;;;;;17.60;99.90;;;;;;5106482;28;19908;-83
2022/05/02 10:30:08;;;;;;;;;;;17.60;99.90;;;;;;5073223;28;19909;-79
2022/05/02 10:32:37;;;;;;;;;;;17.60;99.90;;;;;;5073060;28;19978;-80
2022/05/02 10:35:04;;;;;;;;;;;17.60;99.90;;;;;;5073545;28;19948;-80
2022/05/02 10:37:39;;;;;;;;;;;17.60;99.90;;;;;;5073064;28;19908;-80
2022/05/02 10:40:10;;;;;;;;;;;17.50;99.90;;;;;;5085840;28;19912;-79
2022/05/02 10:42:43;;;;;;;;;;;17.50;99.90;;;;;;5113311;28;20007;-80
2022/05/02 10:45:10;;;;;;;;;;;17.50;99.90;;;;;;5114527;28;19912;-90
2022/05/02 10:47:43;;;;;;;;;;;17.50;99.90;;;;;;5114075;28;20270;-81
2022/05/02 10:50:25;;;;;;;;;;;17.50;99.90;;;;;;5113443;28;19920;-80
2022/05/02 10:52:52;;;;;;;;;;;17.50;99.90;;;;;;5113634;28;20277;-81
2022/05/02 10:55:26;;;;;;;;;;;17.50;99.90;;;;;;5113537;28;19994;-83
2022/05/02 10:57:54;;;;;;;;;;;17.40;99.90;;;;;;5113331;28;19946;-80
2022/05/02 11:00:21;;;;;;;;;;;17.40;99.90;;;;;;5113619;28;19912;-79
2022/05/02 11:03:06;;;;;;;;;;;17.40;99.90;;;;;;5113539;28;19912;-82
2022/05/02 11:05:36;;;;;;;;;;;17.40;99.90;;;;;;5113294;28;19961;-81
2022/05/02 11:08:11;;;;;;;;;;;17.40;99.90;;;;;;5113411;28;19915;-79
2022/05/02 11:10:47;;;;;;;;;;;17.40;99.90;;;;;;5113490;28;19908;-85
2022/05/02 11:13:24;;;;;;;;;;;17.40;99.90;;;;;;5113548;28;19916;-84
2022/05/02 11:15:50;;;;;;;;;;;17.40;99.90;;;;;;5113213;28;20305;-80
2022/05/02 11:21:40;;;;;;;;;;;17.40;99.90;;;;;;5113370;28;19961;-80
2022/05/02 11:24:13;;;;;;;;;;;17.30;99.90;;;;;;5113198;28;20328;-80
2022/05/02 11:26:43;;;;;;;;;;;17.30;99.90;;;;;;5113312;28;20249;-81
2022/05/02 11:29:22;;;;;;;;;;;17.30;99.90;;;;;;5116738;28;19976;-79
2022/05/02 11:31:49;;;;;;;;;;;17.30;99.90;;;;;;5116514;28;19916;-79
2022/05/02 11:34:30;;;;;;;;;;;17.30;99.90;;;;;;5116587;28;19995;-79
2022/05/02 11:36:58;;;;;;;;;;;17.30;99.90;;;;;;5116676;28;19931;-79
2022/05/02 11:39:38;;;;;;;;;;;17.30;99.90;;;;;;5116543;28;19994;-81
2022/05/02 11:42:09;;;;;;;;;;;17.30;99.90;;;;;;5116102;28;19912;-80
2022/05/02 11:44:46;;;;;;;;;;;17.30;99.90;;;;;;5116636;28;20312;-82
2022/05/02 11:47:20;;;;;;;;;;;17.30;99.90;;;;;;5116506;28;20370;-79
2022/05/02 11:49:58;;;;;;;;;;;17.20;99.90;;;;;;5115995;28;20426;-78
2022/05/02 11:52:29;;;;;;;;;;;17.20;99.90;;;;;;5116439;28;19916;-77
2022/05/02 11:54:57;;;;;;;;;;;17.20;99.90;;;;;;5116498;28;19915;-77
2022/05/02 11:57:24;;;;;;;;;;;17.20;99.90;;;;;;5113263;28;19908;-84
2022/05/02 11:59:51;;;;;;;;;;;17.10;99.90;;;;;;5076497;28;19908;-81
2022/05/02 12:02:29;;;;;;;;;;;17.10;99.90;;;;;;5076218;28;19940;-85
2022/05/02 12:04:57;;;;;;;;;;;17.10;99.90;;;;;;5075662;28;20374;-84
2022/05/02 12:07:29;;;;;;;;;;;17.10;99.90;;;;;;5075194;28;19909;-81
2022/05/02 12:10:07;;;;;;;;;;;17.30;99.90;;;;;;5075784;28;20378;-80
2022/05/02 12:12:34;;;;;;;;;;;17.20;99.90;;;;;;5075335;28;19916;-81
2022/05/02 12:15:07;;;;;;;;;;;17.20;99.90;;;;;;5075152;28;19909;-83
2022/05/02 12:17:50;;;;;;;;;;;17.20;99.90;;;;;;5075416;28;19912;-85
2022/05/02 12:20:49;;;;;;;;;;;17.20;99.90;;;;;;5075178;28;19912;-87
2022/05/02 12:23:17;;;;;;;;;;;17.30;99.90;;;;;;5063400;28;19951;-83
2022/05/02 12:25:49;;;;;;;;;;;17.30;99.90;;;;;;5075197;28;19908;-87
2022/05/02 12:28:19;;;;;;;;;;;17.30;99.90;;;;;;5075733;28;20011;-88
2022/05/02 12:30:56;;;;;;;;;;;17.30;99.90;;;;;;5075631;28;20337;-82
2022/05/02 12:33:23;;;;;;;;;;;17.30;99.90;;;;;;5075367;28;20024;-82
2022/05/02 12:35:52;;;;;;;;;;;17.30;99.90;;;;;;5074403;28;20530;-80
2022/05/02 12:38:25;;;;;;;;;;;17.30;99.90;;;;;;5074644;28;19913;-82
2022/05/02 12:40:57;;;;;;;;;;;17.20;99.90;;;;;;5075102;28;20386;-87
2022/05/02 12:43:26;;;;;;;;;;;17.20;99.90;;;;;;5075183;28;19909;-82
2022/05/02 12:45:53;;;;;;;;;;;17.20;99.90;;;;;;5074889;28;20351;-86
2022/05/02 12:48:24;;;;;;;;;;;17.20;99.90;;;;;;5074809;28;19908;-84
2022/05/02 12:50:51;;;;;;;;;;;17.20;99.90;;;;;;5074474;28;19967;-80
2022/05/02 12:54:09;;;;;;;;;;;17.20;99.90;;;;;;5075152;28;20001;-85
2022/05/02 12:56:06;;;;;;;;;;;17.10;99.90;;;;;;5074752;28;19915;-84
2022/05/02 13:01:23;;;;;;;;;;;17.10;99.90;;;;;;5075123;28;20313;-88
2022/05/02 13:04:00;;;;;;;;;;;17.00;99.90;;;;;;5074452;28;20282;-86
2022/05/02 13:06:27;;;;;;;;;;;16.90;99.90;;;;;;5074282;28;19966;-86
2022/05/02 13:09:12;;;;;;;;;;;16.90;99.90;;;;;;5074731;28;19923;-81
2022/05/02 13:11:39;;;;;;;;;;;16.80;99.90;;;;;;5074284;28;19916;-78
2022/05/02 13:14:06;;;;;;;;;;;16.80;99.90;;;;;;5074107;28;19908;-80
2022/05/02 13:16:43;;;;;;;;;;;16.70;99.90;;;;;;5074259;28;19917;-83
2022/05/02 13:19:10;;;;;;;;;;;16.70;99.90;;;;;;5074843;28;19916;-88
2022/05/02 13:21:38;;;;;;;;;;;16.70;99.90;;;;;;5073691;28;19997;-79
2022/05/02 13:24:11;;;;;;;;;;;16.70;99.90;;;;;;5074087;28;19912;-84
2022/05/02 13:26:50;;;;;;;;;;;16.60;99.90;;;;;;5082010;28;20007;-86
2022/05/02 13:29:29;;;;;;;;;;;16.70;99.90;;;;;;5074081;28;20266;-79
2022/05/02 13:32:05;;;;;;;;;;;16.70;99.90;;;;;;5074639;28;20013;-92
2022/05/02 13:34:51;;;;;;;;;;;16.70;99.90;;;;;;5074585;28;19985;-93
2022/05/02 13:37:31;;;;;;;;;;;16.70;99.90;;;;;;5074538;28;19917;-91
2022/05/02 13:40:08;;;;;;;;;;;16.70;99.90;;;;;;5107557;28;19908;-88
2022/05/02 13:42:52;;;;;;;;;;;16.70;99.90;;;;;;5074385;28;20278;-79
2022/05/02 13:45:30;;;;;;;;;;;16.70;99.90;;;;;;5074569;27;19908;-91
2022/05/02 13:48:02;;;;;;;;;;;16.70;99.90;;;;;;5074658;28;19915;-93
2022/05/02 13:50:29;;;;;;;;;;;16.70;99.90;;;;;;5073748;28;20287;-93
2022/05/02 13:53:03;;;;;;;;;;;16.70;99.90;;;;;;5074929;28;19917;-93
2022/05/02 13:55:34;;;;;;;;;;;16.70;99.90;;;;;;5074662;28;19975;-87
2022/05/02 13:58:22;;;;;;;;;;;16.70;99.90;;;;;;5074729;28;19909;-91
2022/05/02 14:01:26;;;;;;;;;;;16.70;99.90;;;;;;5074597;28;19948;-91
2022/05/02 14:03:56;;;;;;;;;;;16.80;99.90;;;;;;5074182;28;20278;-92
2022/05/02 14:06:27;;;;;;;;;;;16.80;99.90;;;;;;5074463;28;19931;-90
2022/05/02 14:08:54;;;;;;;;;;;16.70;99.90;;;;;;5074629;28;19912;-91
2022/05/02 14:11:21;;;;;;;;;;;16.70;99.90;;;;;;5074564;28;20408;-92
2022/05/02 14:13:48;;;;;;;;;;;16.70;99.90;;;;;;5074888;28;19964;-90
2022/05/02 14:16:16;;;;;;;;;;;16.80;99.90;;;;;;5074762;28;19912;-89
2022/05/02 14:18:54;;;;;;;;;;;16.80;99.90;;;;;;5074431;28;19908;-86
2022/05/02 14:21:21;;;;;;;;;;;16.70;99.90;;;;;;5074092;28;19992;-85
2022/05/02 14:23:55;;;;;;;;;;;16.70;99.90;;;;;;5075107;28;19915;-90
2022/05/02 14:26:23;;;;;;;;;;;16.70;99.90;;;;;;5085572;28;19909;-79
2022/05/02 14:28:52;;;;;;;;;;;16.70;99.90;;;;;;5083201;28;20397;-79
2022/05/02 14:31:21;;;;;;;;;;;16.70;99.90;;;;;;5115685;28;19908;-82
2022/05/02 14:33:52;;;;;;;;;;;16.60;99.90;;;;;;5084014;28;19967;-79
2022/05/02 14:36:19;;;;;;;;;;;16.60;99.90;;;;;;5079439;28;19909;-86
2022/05/02 14:38:46;;;;;;;;;;;16.60;99.90;;;;;;5074266;28;20363;-82
2022/05/02 14:41:13;;;;;;;;;;;16.60;99.90;;;;;;5074277;28;19909;-87
2022/05/02 14:43:41;;;;;;;;;;;16.60;99.90;;;;;;5073617;28;20392;-85
2022/05/02 14:46:08;;;;;;;;;;;16.50;99.90;;;;;;5073590;28;19923;-88
2022/05/02 14:48:35;;;;;;;;;;;16.50;99.90;;;;;;5073699;28;19915;-85
2022/05/02 14:51:09;;;;;;;;;;;16.50;99.90;;;;;;5073473;28;20298;-82
2022/05/02 14:53:38;;;;;;;;;;;16.50;99.90;;;;;;5073733;28;19917;-85
2022/05/02 14:56:08;;;;;;;;;;;16.50;99.90;;;;;;5073579;28;19912;-87
2022/05/02 14:58:37;;;;;;;;;;;16.40;99.90;;;;;;5073535;28;20359;-83
2022/05/02 15:01:07;;;;;;;;;;;16.50;99.90;;;;;;5073581;28;19908;-80
2022/05/02 15:03:40;;;;;;;;;;;16.40;99.90;;;;;;5077196;28;19909;-79
2022/05/02 15:06:09;;;;;;;;;;;16.40;99.90;;;;;;5077070;28;19909;-81
2022/05/02 15:08:55;;;;;;;;;;;16.50;99.90;;;;;;5076956;28;19909;-79
2022/05/02 15:11:40;;;;;;;;;;;16.40;99.90;;;;;;5076908;28;19999;-82
2022/05/02 15:14:06;;;;;;;;;;;16.40;99.90;;;;;;5076942;28;19916;-84
2022/05/02 15:16:45;;;;;;;;;;;16.40;99.90;;;;;;5076811;28;19962;-80
2022/05/02 15:19:34;;;;;;;;;;;16.40;99.90;;;;;;5076814;28;20003;-82
2022/05/02 15:22:11;;;;;;;;;;;16.30;99.90;;;;;;5077248;28;19956;-92
2022/05/02 15:24:52;;;;;;;;;;;16.30;99.90;;;;;;5077179;28;19908;-92
2022/05/02 15:27:25;;;;;;;;;;;16.30;99.90;;;;;;5077409;28;19909;-89
2022/05/02 15:38:29;;;;;;;;;;;16.30;99.90;;;;;;5077888;28;19963;-91